createdAt,value
2018-03-31T00:00:08.875Z,993.45
2018-03-31T00:01:08.881Z,993.47
2018-03-31T00:02:08.898Z,993.41
2018-03-31T00:03:08.909Z,993.40
2018-03-31T00:04:08.922Z,993.41
2018-03-31T00:05:08.936Z,993.44
2018-03-31T00:06:08.951Z,993.42
2018-03-31T00:07:08.963Z,993.42
2018-03-31T00:08:08.985Z,993.47
2018-03-31T00:09:08.991Z,993.47
2018-03-31T00:10:09.015Z,993.49
2018-03-31T00:11:09.018Z,993.50
2018-03-31T00:12:09.040Z,993.47
2018-03-31T00:13:09.047Z,993.47
2018-03-31T00:14:09.074Z,993.41
2018-03-31T00:15:09.095Z,993.41
2018-03-31T00:16:09.170Z,993.43
2018-03-31T00:17:09.102Z,993.41
2018-03-31T00:18:09.116Z,993.39
2018-03-31T00:19:09.132Z,993.42
2018-03-31T00:20:09.144Z,993.44
2018-03-31T00:21:09.157Z,993.42
2018-03-31T00:22:09.175Z,993.43
2018-03-31T00:23:09.183Z,993.42
2018-03-31T00:24:09.200Z,993.40
2018-03-31T00:25:09.216Z,993.36
2018-03-31T00:26:09.228Z,993.31
2018-03-31T00:27:09.250Z,993.35
2018-03-31T00:28:09.257Z,993.35
2018-03-31T00:29:09.272Z,993.37
2018-03-31T00:30:09.282Z,993.37
2018-03-31T00:31:09.297Z,993.36
2018-03-31T00:32:09.310Z,993.42
2018-03-31T00:33:09.326Z,993.46
2018-03-31T00:34:09.342Z,993.54
2018-03-31T00:35:09.352Z,993.58
2018-03-31T00:36:09.369Z,993.55
2018-03-31T00:37:09.385Z,993.57
2018-03-31T00:38:09.396Z,993.56
2018-03-31T00:39:09.413Z,993.54
2018-03-31T00:40:09.421Z,993.51
2018-03-31T00:41:09.441Z,993.54
2018-03-31T00:42:09.450Z,993.50
2018-03-31T00:43:09.469Z,993.49
2018-03-31T00:44:09.476Z,993.54
2018-03-31T00:45:09.494Z,993.50
2018-03-31T00:46:09.505Z,993.49
2018-03-31T00:47:09.521Z,993.49
2018-03-31T00:48:09.547Z,993.51
2018-03-31T00:49:09.550Z,993.58
2018-03-31T00:50:09.562Z,993.58
2018-03-31T00:51:09.575Z,993.58
2018-03-31T00:52:09.588Z,993.64
2018-03-31T00:53:09.601Z,993.62
2018-03-31T00:54:09.614Z,993.56
2018-03-31T00:55:09.628Z,993.58
2018-03-31T00:56:09.644Z,993.61
2018-03-31T00:57:09.657Z,993.59
2018-03-31T00:58:09.671Z,993.56
2018-03-31T00:59:09.694Z,993.56
2018-03-31T01:00:09.699Z,993.53
2018-03-31T01:01:09.716Z,993.53
2018-03-31T01:02:09.737Z,993.51
2018-03-31T01:03:09.742Z,993.50
2018-03-31T01:04:09.762Z,993.50
2018-03-31T01:05:09.766Z,993.50
2018-03-31T01:06:09.781Z,993.45
2018-03-31T01:07:09.793Z,993.45
2018-03-31T01:08:09.806Z,993.47
2018-03-31T01:09:09.823Z,993.49
2018-03-31T01:10:09.836Z,993.46
2018-03-31T01:11:09.853Z,993.48
2018-03-31T01:12:09.862Z,993.46
2018-03-31T01:13:09.878Z,993.46
2018-03-31T01:14:09.891Z,993.49
2018-03-31T01:15:09.904Z,993.46
2018-03-31T01:16:09.917Z,993.44
2018-03-31T01:17:09.931Z,993.46
2018-03-31T01:18:09.960Z,993.47
2018-03-31T01:19:09.958Z,993.46
2018-03-31T01:20:09.972Z,993.44
2018-03-31T01:21:09.987Z,993.45
2018-03-31T01:22:10.000Z,993.40
2018-03-31T01:23:10.013Z,993.42
2018-03-31T01:24:10.027Z,993.42
2018-03-31T01:25:10.047Z,993.36
2018-03-31T01:26:10.057Z,993.37
2018-03-31T01:27:10.066Z,993.40
2018-03-31T01:28:10.081Z,993.40
2018-03-31T01:29:10.106Z,993.43
2018-03-31T01:30:10.112Z,993.43
2018-03-31T01:31:10.120Z,993.42
2018-03-31T01:32:10.134Z,993.40
2018-03-31T01:33:10.151Z,993.38
2018-03-31T01:34:10.163Z,993.38
2018-03-31T01:35:10.174Z,993.37
2018-03-31T01:36:10.186Z,993.38
2018-03-31T01:37:10.202Z,993.36
2018-03-31T01:38:10.216Z,993.34
2018-03-31T01:39:10.229Z,993.32
2018-03-31T01:40:10.239Z,993.34
2018-03-31T01:41:10.258Z,993.32
2018-03-31T01:42:10.267Z,993.30
2018-03-31T01:43:10.282Z,993.31
2018-03-31T01:44:10.300Z,993.29
2018-03-31T01:45:10.310Z,993.35
2018-03-31T01:47:10.334Z,993.33
2018-03-31T01:48:10.348Z,993.36
2018-03-31T01:49:10.357Z,993.35
2018-03-31T01:50:10.375Z,993.32
2018-03-31T01:51:10.380Z,993.40
2018-03-31T01:52:10.396Z,993.35
2018-03-31T01:53:10.410Z,993.37
2018-03-31T01:54:10.421Z,993.38
2018-03-31T01:55:10.435Z,993.38
2018-03-31T01:56:10.449Z,993.41
2018-03-31T01:57:10.469Z,993.40
2018-03-31T01:58:10.477Z,993.36
2018-03-31T01:59:10.489Z,993.39
2018-03-31T02:00:10.503Z,993.37
2018-03-31T02:01:10.516Z,993.39
2018-03-31T02:02:10.529Z,993.39
2018-03-31T02:03:10.542Z,993.39
2018-03-31T02:04:10.557Z,993.39
2018-03-31T02:05:10.570Z,993.39
2018-03-31T02:06:10.585Z,993.37
2018-03-31T02:07:10.597Z,993.31
2018-03-31T02:08:10.609Z,993.34
2018-03-31T02:09:10.623Z,993.32
2018-03-31T02:10:10.636Z,993.35
2018-03-31T02:11:10.655Z,993.36
2018-03-31T02:12:10.663Z,993.31
2018-03-31T02:13:10.676Z,993.30
2018-03-31T02:14:10.694Z,993.29
2018-03-31T02:15:10.703Z,993.25
2018-03-31T02:16:10.718Z,993.27
2018-03-31T02:17:10.730Z,993.29
2018-03-31T02:18:10.745Z,993.24
2018-03-31T02:19:10.756Z,993.19
2018-03-31T02:20:10.771Z,993.25
2018-03-31T02:21:10.784Z,993.25
2018-03-31T02:22:10.800Z,993.25
2018-03-31T02:23:10.813Z,993.22
2018-03-31T02:24:10.825Z,993.22
2018-03-31T02:25:10.837Z,993.19
2018-03-31T02:26:10.850Z,993.25
2018-03-31T02:27:10.863Z,993.20
2018-03-31T02:28:10.881Z,993.27
2018-03-31T02:29:10.892Z,993.22
2018-03-31T02:30:10.905Z,993.23
2018-03-31T02:31:10.921Z,993.22
2018-03-31T02:32:10.931Z,993.25
2018-03-31T02:33:10.944Z,993.25
2018-03-31T02:34:10.961Z,993.22
2018-03-31T02:35:10.969Z,993.25
2018-03-31T02:36:10.993Z,993.23
2018-03-31T02:37:10.998Z,993.22
2018-03-31T02:38:11.010Z,993.18
2018-03-31T02:39:11.026Z,993.15
2018-03-31T02:40:11.037Z,993.14
2018-03-31T02:41:11.054Z,993.13
2018-03-31T02:42:11.069Z,993.15
2018-03-31T02:43:11.082Z,993.09
2018-03-31T02:44:11.090Z,993.13
2018-03-31T02:45:11.105Z,993.09
2018-03-31T02:46:11.118Z,993.12
2018-03-31T02:47:11.130Z,993.10
2018-03-31T02:48:11.148Z,993.11
2018-03-31T02:49:11.157Z,993.13
2018-03-31T02:50:11.174Z,993.11
2018-03-31T02:51:11.194Z,993.08
2018-03-31T02:52:11.199Z,993.06
2018-03-31T02:53:11.215Z,993.03
2018-03-31T02:54:11.231Z,993.07
2018-03-31T02:55:11.252Z,993.08
2018-03-31T02:56:11.249Z,993.09
2018-03-31T02:57:11.264Z,993.07
2018-03-31T02:58:11.291Z,993.08
2018-03-31T02:59:11.289Z,993.09
2018-03-31T03:00:11.305Z,993.10
2018-03-31T03:01:11.322Z,993.09
2018-03-31T03:02:11.328Z,993.10
2018-03-31T03:03:11.348Z,993.09
2018-03-31T03:04:11.357Z,993.07
2018-03-31T03:05:11.368Z,993.12
2018-03-31T03:06:11.394Z,993.18
2018-03-31T03:07:11.396Z,993.17
2018-03-31T03:08:11.410Z,993.19
2018-03-31T03:09:11.428Z,993.18
2018-03-31T03:10:11.438Z,993.17
2018-03-31T03:11:11.449Z,993.20
2018-03-31T03:12:11.462Z,993.25
2018-03-31T03:13:11.477Z,993.21
2018-03-31T03:14:11.490Z,993.25
2018-03-31T03:15:11.507Z,993.23
2018-03-31T03:16:11.518Z,993.27
2018-03-31T03:17:11.529Z,993.25
2018-03-31T03:18:11.543Z,993.24
2018-03-31T03:19:11.557Z,993.27
2018-03-31T03:20:11.569Z,993.23
2018-03-31T03:21:11.584Z,993.23
2018-03-31T03:22:11.599Z,993.24
2018-03-31T03:23:11.609Z,993.25
2018-03-31T03:24:11.623Z,993.27
2018-03-31T03:25:11.636Z,993.26
2018-03-31T03:26:11.651Z,993.22
2018-03-31T03:27:11.663Z,993.22
2018-03-31T03:28:11.678Z,993.24
2018-03-31T03:29:11.691Z,993.27
2018-03-31T03:30:11.708Z,993.28
2018-03-31T03:31:11.717Z,993.26
2018-03-31T03:32:11.731Z,993.30
2018-03-31T03:33:11.745Z,993.28
2018-03-31T03:34:11.758Z,993.31
2018-03-31T03:35:11.773Z,993.29
2018-03-31T03:36:11.782Z,993.33
2018-03-31T03:37:11.797Z,993.35
2018-03-31T03:38:11.810Z,993.36
2018-03-31T03:39:11.823Z,993.34
2018-03-31T03:40:11.840Z,993.34
2018-03-31T03:41:11.850Z,993.35
2018-03-31T03:42:11.864Z,993.40
2018-03-31T03:43:11.888Z,993.44
2018-03-31T03:44:11.892Z,993.44
2018-03-31T03:45:11.904Z,993.45
2018-03-31T03:46:11.918Z,993.49
2018-03-31T03:47:11.935Z,993.47
2018-03-31T03:48:11.948Z,993.47
2018-03-31T03:49:11.958Z,993.55
2018-03-31T03:50:11.971Z,993.58
2018-03-31T03:51:11.984Z,993.56
2018-03-31T03:52:11.997Z,993.59
2018-03-31T03:53:12.013Z,993.62
2018-03-31T03:54:12.024Z,993.61
2018-03-31T03:55:12.038Z,993.61
2018-03-31T03:56:12.052Z,993.63
2018-03-31T03:57:12.071Z,993.66
2018-03-31T03:58:12.080Z,993.65
2018-03-31T03:59:12.092Z,993.62
2018-03-31T04:00:12.109Z,993.67
2018-03-31T04:01:12.118Z,993.66
2018-03-31T04:02:12.145Z,993.69
2018-03-31T04:03:12.147Z,993.70
2018-03-31T04:04:12.159Z,993.72
2018-03-31T04:05:12.173Z,993.72
2018-03-31T04:06:12.203Z,993.72
2018-03-31T04:07:12.199Z,993.73
2018-03-31T04:08:12.212Z,993.75
2018-03-31T04:09:12.226Z,993.74
2018-03-31T04:10:12.240Z,993.75
2018-03-31T04:11:12.253Z,993.72
2018-03-31T04:12:12.265Z,993.72
2018-03-31T04:13:12.283Z,993.72
2018-03-31T04:14:12.295Z,993.68
2018-03-31T04:15:12.306Z,993.72
2018-03-31T04:16:12.322Z,993.71
2018-03-31T04:17:12.340Z,993.70
2018-03-31T04:18:12.347Z,993.75
2018-03-31T04:19:12.360Z,993.77
2018-03-31T04:20:12.372Z,993.78
2018-03-31T04:21:12.387Z,993.76
2018-03-31T04:22:12.405Z,993.77
2018-03-31T04:23:12.412Z,993.80
2018-03-31T04:24:12.427Z,993.82
2018-03-31T04:25:12.442Z,993.83
2018-03-31T04:26:12.456Z,993.83
2018-03-31T04:27:12.465Z,993.80
2018-03-31T04:28:12.481Z,993.79
2018-03-31T04:29:12.499Z,993.80
2018-03-31T04:30:12.507Z,993.79
2018-03-31T04:31:12.518Z,993.83
2018-03-31T04:32:12.533Z,993.81
2018-03-31T04:33:12.547Z,993.82
2018-03-31T04:34:12.569Z,993.83
2018-03-31T04:35:12.571Z,993.85
2018-03-31T04:36:12.583Z,993.83
2018-03-31T04:37:12.599Z,993.85
2018-03-31T04:38:12.613Z,993.86
2018-03-31T04:39:12.626Z,993.85
2018-03-31T04:40:12.636Z,993.85
2018-03-31T04:41:12.651Z,993.89
2018-03-31T04:42:12.667Z,993.82
2018-03-31T04:43:12.678Z,993.78
2018-03-31T04:44:12.700Z,993.83
2018-03-31T04:45:12.705Z,993.83
2018-03-31T04:46:12.721Z,993.81
2018-03-31T04:47:12.737Z,993.84
2018-03-31T04:48:12.744Z,993.81
2018-03-31T04:49:12.760Z,993.82
2018-03-31T04:50:12.772Z,993.77
2018-03-31T04:51:12.783Z,993.79
2018-03-31T04:52:12.797Z,993.77
2018-03-31T04:53:12.808Z,993.82
2018-03-31T04:54:12.822Z,993.86
2018-03-31T04:55:12.893Z,993.86
2018-03-31T04:56:12.849Z,993.88
2018-03-31T04:57:12.867Z,993.90
2018-03-31T04:58:12.906Z,993.94
2018-03-31T04:59:12.888Z,993.91
2018-03-31T05:00:12.905Z,993.93
2018-03-31T05:01:12.921Z,993.88
2018-03-31T05:02:12.942Z,993.90
2018-03-31T05:03:12.944Z,993.88
2018-03-31T05:04:12.956Z,993.88
2018-03-31T05:05:12.969Z,993.87
2018-03-31T05:06:12.981Z,993.86
2018-03-31T05:07:13.005Z,993.85
2018-03-31T05:08:13.008Z,993.83
2018-03-31T05:09:13.019Z,993.84
2018-03-31T05:10:13.032Z,993.80
2018-03-31T05:11:13.045Z,993.78
2018-03-31T05:12:13.058Z,993.80
2018-03-31T05:13:13.073Z,993.78
2018-03-31T05:14:13.087Z,993.78
2018-03-31T05:15:13.099Z,993.76
2018-03-31T05:16:13.111Z,993.77
2018-03-31T05:17:13.124Z,993.77
2018-03-31T05:18:13.139Z,993.78
2018-03-31T05:19:13.148Z,993.78
2018-03-31T05:20:13.186Z,993.78
2018-03-31T05:21:13.177Z,993.76
2018-03-31T05:22:13.225Z,993.81
2018-03-31T05:23:13.245Z,993.81
2018-03-31T05:24:13.215Z,993.83
2018-03-31T05:25:13.227Z,993.85
2018-03-31T05:26:13.241Z,993.81
2018-03-31T05:27:13.252Z,993.83
2018-03-31T05:28:13.266Z,993.83
2018-03-31T05:29:13.284Z,993.82
2018-03-31T05:30:13.299Z,993.82
2018-03-31T05:31:13.306Z,993.82
2018-03-31T05:32:13.321Z,993.86
2018-03-31T05:33:13.331Z,993.82
2018-03-31T05:34:13.350Z,993.81
2018-03-31T05:35:13.361Z,993.79
2018-03-31T05:36:13.370Z,993.78
2018-03-31T05:37:13.383Z,993.77
2018-03-31T05:38:13.409Z,993.74
2018-03-31T05:39:13.406Z,993.76
2018-03-31T05:40:13.424Z,993.76
2018-03-31T05:41:13.436Z,993.76
2018-03-31T05:42:13.503Z,993.75
2018-03-31T05:43:13.468Z,993.73
2018-03-31T05:44:13.473Z,993.75
2018-03-31T05:45:13.488Z,993.75
2018-03-31T05:46:13.501Z,993.74
2018-03-31T05:47:13.513Z,993.78
2018-03-31T05:48:13.525Z,993.77
2018-03-31T05:49:13.538Z,993.78
2018-03-31T05:50:13.556Z,993.85
2018-03-31T05:51:13.570Z,993.85
2018-03-31T05:52:13.578Z,993.83
2018-03-31T05:53:13.596Z,993.87
2018-03-31T05:54:13.611Z,993.87
2018-03-31T05:55:13.617Z,993.86
2018-03-31T05:56:13.631Z,993.87
2018-03-31T05:57:13.646Z,993.94
2018-03-31T05:58:13.655Z,993.95
2018-03-31T05:59:13.674Z,993.97
2018-03-31T06:00:13.682Z,993.95
2018-03-31T06:01:13.704Z,993.99
2018-03-31T06:02:13.707Z,993.98
2018-03-31T06:03:13.720Z,993.99
2018-03-31T06:04:13.740Z,994.00
2018-03-31T06:05:13.752Z,994.02
2018-03-31T06:06:13.760Z,993.97
2018-03-31T06:07:13.773Z,993.99
2018-03-31T06:08:13.786Z,994.03
2018-03-31T06:09:13.800Z,994.02
2018-03-31T06:10:13.817Z,994.02
2018-03-31T06:11:13.827Z,994.00
2018-03-31T06:12:13.840Z,994.06
2018-03-31T06:13:13.856Z,994.01
2018-03-31T06:14:13.865Z,994.02
2018-03-31T06:15:13.903Z,994.03
2018-03-31T06:16:13.893Z,994.06
2018-03-31T06:17:13.908Z,994.08
2018-03-31T06:18:13.919Z,994.11
2018-03-31T06:19:13.932Z,994.14
2018-03-31T06:20:13.945Z,994.18
2018-03-31T06:21:13.957Z,994.18
2018-03-31T06:22:13.971Z,994.19
2018-03-31T06:23:13.984Z,994.19
2018-03-31T06:24:14.002Z,994.25
2018-03-31T06:25:14.021Z,994.25
2018-03-31T06:26:14.024Z,994.23
2018-03-31T06:27:14.040Z,994.28
2018-03-31T06:28:14.053Z,994.29
2018-03-31T06:29:14.067Z,994.27
2018-03-31T06:30:14.081Z,994.26
2018-03-31T06:31:14.100Z,994.27
2018-03-31T06:32:14.110Z,994.31
2018-03-31T06:33:14.118Z,994.28
2018-03-31T06:34:14.132Z,994.36
2018-03-31T06:35:14.151Z,994.33
2018-03-31T06:36:14.156Z,994.35
2018-03-31T06:37:14.172Z,994.33
2018-03-31T06:38:14.183Z,994.34
2018-03-31T06:39:14.202Z,994.33
2018-03-31T06:40:14.217Z,994.33
2018-03-31T06:41:14.232Z,994.33
2018-03-31T06:42:14.256Z,994.35
2018-03-31T06:43:14.259Z,994.36
2018-03-31T06:44:14.329Z,994.39
2018-03-31T06:45:14.280Z,994.39
2018-03-31T06:46:14.293Z,994.37
2018-03-31T06:47:14.304Z,994.39
2018-03-31T06:48:14.322Z,994.38
2018-03-31T06:49:14.334Z,994.36
2018-03-31T06:50:14.347Z,994.37
2018-03-31T06:51:14.360Z,994.35
2018-03-31T06:52:14.385Z,994.32
2018-03-31T06:53:14.398Z,994.33
2018-03-31T06:54:14.401Z,994.31
2018-03-31T06:55:14.414Z,994.33
2018-03-31T06:56:14.429Z,994.35
2018-03-31T06:57:14.439Z,994.39
2018-03-31T06:58:14.557Z,994.42
2018-03-31T06:59:14.470Z,994.46
2018-03-31T07:00:14.483Z,994.49
2018-03-31T07:01:14.498Z,994.44
2018-03-31T07:02:14.516Z,994.47
2018-03-31T07:03:14.532Z,994.47
2018-03-31T07:04:14.537Z,994.53
2018-03-31T07:05:14.554Z,994.49
2018-03-31T07:06:14.564Z,994.50
2018-03-31T07:07:14.578Z,994.50
2018-03-31T07:08:14.589Z,994.50
2018-03-31T07:09:14.614Z,994.59
2018-03-31T07:10:14.633Z,994.54
2018-03-31T07:11:14.630Z,994.55
2018-03-31T07:12:14.645Z,994.60
2018-03-31T07:13:14.660Z,994.62
2018-03-31T07:14:14.673Z,994.56
2018-03-31T07:15:14.686Z,994.56
2018-03-31T07:16:14.699Z,994.58
2018-03-31T07:17:14.715Z,994.55
2018-03-31T07:18:14.736Z,994.56
2018-03-31T07:19:14.751Z,994.53
2018-03-31T07:20:14.759Z,994.57
2018-03-31T07:21:14.767Z,994.58
2018-03-31T07:22:14.840Z,994.57
2018-03-31T07:23:14.801Z,994.55
2018-03-31T07:24:14.823Z,994.54
2018-03-31T07:25:14.824Z,994.57
2018-03-31T07:26:14.845Z,994.56
2018-03-31T07:27:14.857Z,994.56
2018-03-31T07:28:14.865Z,994.53
2018-03-31T07:29:14.883Z,994.58
2018-03-31T07:30:14.894Z,994.56
2018-03-31T07:31:14.909Z,994.58
2018-03-31T07:32:14.983Z,994.58
2018-03-31T07:33:14.931Z,994.58
2018-03-31T07:34:14.951Z,994.57
2018-03-31T07:35:14.961Z,994.53
2018-03-31T07:36:15.042Z,994.58
2018-03-31T07:37:14.999Z,994.55
2018-03-31T07:38:15.002Z,994.56
2018-03-31T07:39:15.016Z,994.57
2018-03-31T07:40:15.031Z,994.59
2018-03-31T07:41:15.048Z,994.54
2018-03-31T07:42:15.066Z,994.54
2018-03-31T07:43:15.073Z,994.57
2018-03-31T07:44:15.085Z,994.58
2018-03-31T07:45:15.099Z,994.56
2018-03-31T07:46:15.111Z,994.50
2018-03-31T07:47:15.125Z,994.54
2018-03-31T07:48:15.144Z,994.52
2018-03-31T07:49:15.155Z,994.46
2018-03-31T07:50:15.168Z,994.47
2018-03-31T07:51:15.193Z,994.45
2018-03-31T07:52:15.205Z,994.47
2018-03-31T07:53:15.213Z,994.46
2018-03-31T07:54:15.225Z,994.45
2018-03-31T07:55:15.248Z,994.44
2018-03-31T07:56:15.253Z,994.45
2018-03-31T07:57:15.271Z,994.47
2018-03-31T07:58:15.297Z,994.48
2018-03-31T07:59:15.296Z,994.51
2018-03-31T08:00:15.310Z,994.51
2018-03-31T08:01:15.338Z,994.54
2018-03-31T08:02:15.344Z,994.51
2018-03-31T08:03:15.358Z,994.54
2018-03-31T08:04:15.367Z,994.54
2018-03-31T08:05:15.380Z,994.53
2018-03-31T08:06:15.395Z,994.51
2018-03-31T08:07:15.408Z,994.53
2018-03-31T08:08:15.423Z,994.53
2018-03-31T08:09:15.440Z,994.52
2018-03-31T08:10:15.453Z,994.51
2018-03-31T08:11:15.469Z,994.54
2018-03-31T08:12:15.481Z,994.51
2018-03-31T08:13:15.493Z,994.49
2018-03-31T08:14:15.507Z,994.52
2018-03-31T08:15:15.525Z,994.54
2018-03-31T08:16:15.544Z,994.55
2018-03-31T08:17:15.559Z,994.51
2018-03-31T08:18:15.569Z,994.57
2018-03-31T08:19:15.580Z,994.61
2018-03-31T08:20:15.595Z,994.60
2018-03-31T08:21:15.613Z,994.58
2018-03-31T08:22:15.623Z,994.57
2018-03-31T08:23:15.638Z,994.59
2018-03-31T08:24:15.678Z,994.57
2018-03-31T08:25:15.673Z,994.62
2018-03-31T08:26:15.680Z,994.62
2018-03-31T08:27:15.700Z,994.60
2018-03-31T08:28:15.711Z,994.59
2018-03-31T08:29:15.724Z,994.56
2018-03-31T08:30:15.791Z,994.59
2018-03-31T08:31:15.751Z,994.60
2018-03-31T08:32:15.765Z,994.60
2018-03-31T08:33:15.781Z,994.57
2018-03-31T08:34:15.799Z,994.61
2018-03-31T08:35:15.810Z,994.65
2018-03-31T08:36:15.884Z,994.63
2018-03-31T08:37:15.841Z,994.60
2018-03-31T08:38:15.956Z,994.56
2018-03-31T08:39:15.872Z,994.57
2018-03-31T08:40:15.882Z,994.63
2018-03-31T08:41:15.903Z,994.62
2018-03-31T08:42:15.935Z,994.58
2018-03-31T08:43:15.925Z,994.61
2018-03-31T08:44:15.949Z,994.60
2018-03-31T08:45:15.959Z,994.59
2018-03-31T08:47:16.069Z,994.63
2018-03-31T08:49:16.477Z,994.60
2018-03-31T08:50:16.023Z,994.58
2018-03-31T08:51:16.036Z,994.61
2018-03-31T08:52:16.053Z,994.61
2018-03-31T08:53:16.973Z,994.62
2018-03-31T08:54:16.296Z,994.63
2018-03-31T08:55:16.102Z,994.61
2018-03-31T08:56:16.473Z,994.62
2018-03-31T08:57:16.125Z,994.61
2018-03-31T08:58:16.347Z,994.61
2018-03-31T08:59:16.160Z,994.60
2018-03-31T09:00:16.169Z,994.58
2018-03-31T09:01:16.185Z,994.58
2018-03-31T09:02:16.198Z,994.59
2018-03-31T09:03:16.277Z,994.59
2018-03-31T09:04:16.237Z,994.60
2018-03-31T09:05:16.262Z,994.57
2018-03-31T09:06:16.258Z,994.60
2018-03-31T09:07:16.307Z,994.58
2018-03-31T09:08:16.285Z,994.55
2018-03-31T09:09:16.347Z,994.62
2018-03-31T09:10:16.315Z,994.58
2018-03-31T09:11:16.333Z,994.57
2018-03-31T09:12:16.362Z,994.57
2018-03-31T09:13:16.359Z,994.53
2018-03-31T09:14:16.379Z,994.61
2018-03-31T09:15:16.401Z,994.58
2018-03-31T09:16:16.548Z,994.58
2018-03-31T09:17:16.416Z,994.61
2018-03-31T09:19:16.453Z,994.61
2018-03-31T09:20:16.465Z,994.63
2018-03-31T09:21:16.477Z,994.69
2018-03-31T09:22:16.491Z,994.65
2018-03-31T09:23:16.517Z,994.71
2018-03-31T09:24:16.528Z,994.71
2018-03-31T09:25:16.538Z,994.72
2018-03-31T09:26:16.554Z,994.75
2018-03-31T09:27:16.566Z,994.72
2018-03-31T09:28:16.581Z,994.74
2018-03-31T09:29:16.596Z,994.73
2018-03-31T09:30:16.609Z,994.75
2018-03-31T09:31:16.637Z,994.75
2018-03-31T09:32:16.747Z,994.77
2018-03-31T09:33:16.657Z,994.75
2018-03-31T09:34:16.719Z,994.76
2018-03-31T09:35:16.684Z,994.73
2018-03-31T09:36:16.725Z,994.75
2018-03-31T09:37:16.715Z,994.72
2018-03-31T09:38:18.062Z,994.76
2018-03-31T09:39:16.788Z,994.76
2018-03-31T09:40:16.772Z,994.76
2018-03-31T09:41:16.774Z,994.78
2018-03-31T09:42:16.789Z,994.81
2018-03-31T09:43:16.805Z,994.82
2018-03-31T09:44:16.818Z,994.84
2018-03-31T09:45:16.834Z,994.84
2018-03-31T09:46:16.846Z,994.84
2018-03-31T09:47:16.861Z,994.82
2018-03-31T09:48:16.882Z,994.79
2018-03-31T09:49:16.897Z,994.78
2018-03-31T09:50:16.907Z,994.80
2018-03-31T09:51:16.926Z,994.80
2018-03-31T09:52:16.985Z,994.80
2018-03-31T09:53:16.981Z,994.82
2018-03-31T09:54:16.973Z,994.81
2018-03-31T09:55:16.995Z,994.75
2018-03-31T09:56:17.004Z,994.81
2018-03-31T09:57:17.011Z,994.76
2018-03-31T09:58:17.026Z,994.75
2018-03-31T09:59:17.054Z,994.77
2018-03-31T10:00:17.058Z,994.77
2018-03-31T10:01:17.083Z,994.74
2018-03-31T10:02:17.103Z,994.74
2018-03-31T10:03:17.108Z,994.71
2018-03-31T10:04:17.153Z,994.72
2018-03-31T10:05:17.145Z,994.75
2018-03-31T10:06:17.148Z,994.76
2018-03-31T10:07:17.168Z,994.78
2018-03-31T10:08:17.182Z,994.75
2018-03-31T10:09:17.193Z,994.74
2018-03-31T10:10:17.206Z,994.75
2018-03-31T10:11:18.077Z,994.73
2018-03-31T10:12:18.143Z,994.72
2018-03-31T10:13:17.250Z,994.72
2018-03-31T10:14:17.270Z,994.73
2018-03-31T10:15:17.285Z,994.77
2018-03-31T10:16:17.295Z,994.76
2018-03-31T10:17:17.313Z,994.76
2018-03-31T10:18:17.329Z,994.76
2018-03-31T10:19:17.347Z,994.77
2018-03-31T10:20:17.612Z,994.76
2018-03-31T10:21:17.376Z,994.77
2018-03-31T10:22:17.389Z,994.81
2018-03-31T10:23:17.405Z,994.84
2018-03-31T10:24:17.439Z,994.82
2018-03-31T10:25:17.437Z,994.84
2018-03-31T10:26:17.449Z,994.78
2018-03-31T10:27:17.470Z,994.83
2018-03-31T10:28:17.482Z,994.82
2018-03-31T10:29:17.542Z,994.81
2018-03-31T10:30:17.515Z,994.82
2018-03-31T10:31:17.525Z,994.81
2018-03-31T10:32:17.543Z,994.84
2018-03-31T10:33:17.561Z,994.83
2018-03-31T10:34:17.572Z,994.88
2018-03-31T10:35:17.605Z,994.87
2018-03-31T10:36:17.606Z,994.93
2018-03-31T10:37:17.641Z,994.87
2018-03-31T10:38:17.636Z,994.91
2018-03-31T10:39:17.647Z,994.90
2018-03-31T10:40:17.667Z,994.90
2018-03-31T10:41:17.880Z,994.92
2018-03-31T10:42:17.702Z,994.93
2018-03-31T10:43:17.725Z,994.95
2018-03-31T10:44:17.734Z,994.91
2018-03-31T10:45:17.743Z,994.91
2018-03-31T10:46:17.755Z,994.96
2018-03-31T10:47:17.770Z,994.91
2018-03-31T10:48:17.788Z,994.88
2018-03-31T10:49:17.812Z,994.91
2018-03-31T10:50:17.974Z,994.95
2018-03-31T10:51:17.837Z,994.96
2018-03-31T10:52:18.130Z,994.94
2018-03-31T10:53:17.924Z,994.94
2018-03-31T10:54:17.877Z,994.97
2018-03-31T10:55:17.906Z,994.97
2018-03-31T10:56:17.913Z,994.98
2018-03-31T10:57:17.945Z,994.97
2018-03-31T10:58:17.943Z,994.93
2018-03-31T10:59:18.001Z,994.94
2018-03-31T11:00:18.018Z,994.95
2018-03-31T11:01:17.987Z,994.97
2018-03-31T11:02:18.002Z,994.96
2018-03-31T11:03:18.032Z,994.95
2018-03-31T11:04:18.040Z,994.94
2018-03-31T11:05:18.046Z,994.91
2018-03-31T11:06:18.064Z,994.96
2018-03-31T11:07:18.079Z,994.97
2018-03-31T11:08:18.105Z,995.00
2018-03-31T11:09:18.113Z,995.05
2018-03-31T11:10:18.124Z,995.02
2018-03-31T11:11:18.145Z,995.02
2018-03-31T11:12:18.155Z,995.01
2018-03-31T11:13:18.169Z,995.02
2018-03-31T11:14:18.192Z,995.00
2018-03-31T11:15:18.205Z,995.01
2018-03-31T11:16:18.214Z,995.05
2018-03-31T11:17:18.236Z,995.00
2018-03-31T11:18:18.249Z,994.98
2018-03-31T11:19:18.276Z,994.99
2018-03-31T11:20:18.277Z,994.97
2018-03-31T11:21:18.294Z,994.97
2018-03-31T11:22:18.316Z,995.05
2018-03-31T11:23:18.352Z,995.02
2018-03-31T11:24:18.347Z,995.00
2018-03-31T11:25:18.363Z,995.01
2018-03-31T11:26:18.371Z,995.00
2018-03-31T11:27:18.401Z,995.01
2018-03-31T11:28:18.404Z,995.00
2018-03-31T11:29:18.417Z,994.97
2018-03-31T11:30:18.429Z,995.06
2018-03-31T11:31:18.449Z,995.04
2018-03-31T11:32:18.461Z,995.03
2018-03-31T11:33:18.479Z,995.02
2018-03-31T11:34:18.495Z,994.99
2018-03-31T11:35:18.520Z,995.05
2018-03-31T11:36:18.524Z,995.01
2018-03-31T11:37:18.540Z,995.01
2018-03-31T11:38:18.557Z,995.00
2018-03-31T11:39:18.586Z,994.94
2018-03-31T11:40:18.589Z,994.92
2018-03-31T11:41:18.636Z,994.96
2018-03-31T11:42:19.042Z,994.91
2018-03-31T11:43:18.637Z,994.95
2018-03-31T11:44:18.654Z,994.95
2018-03-31T11:45:18.671Z,994.95
2018-03-31T11:46:18.687Z,994.96
2018-03-31T11:47:18.698Z,994.89
2018-03-31T11:48:18.713Z,994.91
2018-03-31T11:49:18.729Z,994.91
2018-03-31T11:50:18.753Z,994.91
2018-03-31T11:51:18.762Z,994.94
2018-03-31T11:52:18.877Z,994.88
2018-03-31T11:53:18.797Z,994.87
2018-03-31T11:54:18.881Z,994.82
2018-03-31T11:55:18.843Z,994.90
2018-03-31T11:56:18.842Z,994.88
2018-03-31T11:57:18.859Z,994.83
2018-03-31T11:58:18.872Z,994.80
2018-03-31T11:59:18.889Z,994.83
2018-03-31T12:00:18.905Z,994.78
2018-03-31T12:01:18.924Z,994.82
2018-03-31T12:02:18.944Z,994.80
2018-03-31T12:03:18.953Z,994.81
2018-03-31T12:04:18.974Z,994.85
2018-03-31T12:05:18.992Z,994.83
2018-03-31T12:06:19.001Z,994.83
2018-03-31T12:07:19.015Z,994.86
2018-03-31T12:08:19.030Z,994.86
2018-03-31T12:09:19.046Z,994.83
2018-03-31T12:10:19.066Z,994.86
2018-03-31T12:11:19.078Z,994.86
2018-03-31T12:12:19.096Z,994.84
2018-03-31T12:13:19.135Z,994.85
2018-03-31T12:14:19.130Z,994.86
2018-03-31T12:15:19.143Z,994.85
2018-03-31T12:16:19.161Z,994.83
2018-03-31T12:17:19.177Z,994.84
2018-03-31T12:18:19.202Z,994.83
2018-03-31T12:19:19.207Z,994.84
2018-03-31T12:20:19.227Z,994.82
2018-03-31T12:21:19.239Z,994.83
2018-03-31T12:22:19.264Z,994.82
2018-03-31T12:23:19.337Z,994.80
2018-03-31T12:24:19.295Z,994.82
2018-03-31T12:25:19.316Z,994.83
2018-03-31T12:26:19.331Z,994.79
2018-03-31T12:27:19.339Z,994.78
2018-03-31T12:28:19.352Z,994.80
2018-03-31T12:29:19.365Z,994.84
2018-03-31T12:30:19.388Z,994.77
2018-03-31T12:31:19.416Z,994.80
2018-03-31T12:32:19.435Z,994.78